Perus, Brazil
Current Conditions -  °F | °C
As of 11:00 PM on Tuesday 27 Jan 2015 (Local Time) from SBMT Reporting Station
Thunderstorm Thunderstorm  
Wind Chill: 70°   Ceiling: 2000
Heat Index: 70°   Visibility: 0.75mi
Dew Point: 66°   Wind: 10mph
Humidity: 88%   Direction: 100°E
Pressure: 30.09"   Gusts: NA
Location:  23.42°S, 46.75°W
Report Text: SBMT 280100Z 10009KT 1200 +TSRA BKN020 SCT040CB 21/19 Q1019
Loading
Personal Weather Stations






























Interactive Weather Map New forecast layout! Learn more

10-Day Weather Forecast

Advertisements
Track Severe Weather on mobile